sensor_id;sensor_type;location;lat;lon;timestamp;pressure;altitude;pressure_sealevel;temperature;humidity
29879;BME280;16752;53.364;-1.488;2023-03-01T00:00:51;102391.31;;;13.96;47.69
29879;BME280;16752;53.364;-1.488;2023-03-01T00:06:26;102397.69;;;14.10;47.47
29879;BME280;16752;53.364;-1.488;2023-03-01T00:22:16;102385.31;;;14.29;46.65
29879;BME280;16752;53.364;-1.488;2023-03-01T07:15:42;102160.69;;;13.72;47.03
29879;BME280;16752;53.364;-1.488;2023-03-01T07:21:52;102172.38;;;13.11;48.53
29879;BME280;16752;53.364;-1.488;2023-03-01T07:24:19;102173.63;;;13.76;47.22
29879;BME280;16752;53.364;-1.488;2023-03-01T08:34:21;102177.53;;;14.70;45.98
29879;BME280;16752;53.364;-1.488;2023-03-01T08:51:24;102173.69;;;14.60;46.09
29879;BME280;16752;53.364;-1.488;2023-03-01T09:04:26;102183.13;;;14.64;45.68
29879;BME280;16752;53.364;-1.488;2023-03-01T16:02:47;101714.56;;;16.26;43.10
29879;BME280;16752;53.364;-1.488;2023-03-01T16:11:30;101714.16;;;16.07;42.98
29879;BME280;16752;53.364;-1.488;2023-03-01T16:14:09;101702.31;;;16.12;43.26
29879;BME280;16752;53.364;-1.488;2023-03-01T16:16:37;101709.59;;;16.22;42.83
29879;BME280;16752;53.364;-1.488;2023-03-01T16:25:27;101690.53;;;15.91;43.36
29879;BME280;16752;53.364;-1.488;2023-03-01T16:48:15;101680.78;;;15.52;43.58
29879;BME280;16752;53.364;-1.488;2023-03-01T16:51:21;101686.56;;;15.03;44.82
29879;BME280;16752;53.364;-1.488;2023-03-01T16:54:15;101675.19;;;15.56;43.27
29879;BME280;16752;53.364;-1.488;2023-03-01T16:59:49;101649.53;;;15.58;43.10
29879;BME280;16752;53.364;-1.488;2023-03-01T17:02:46;101685.81;;;15.42;44.03
29879;BME280;16752;53.364;-1.488;2023-03-01T17:08:47;101682.41;;;15.13;44.33
29879;BME280;16752;53.364;-1.488;2023-03-01T17:11:22;101682.09;;;15.59;43.82
29879;BME280;16752;53.364;-1.488;2023-03-01T17:13:50;101683.75;;;15.06;45.54
29879;BME280;16752;53.364;-1.488;2023-03-01T17:16:16;101682.66;;;15.64;44.24
29879;BME280;16752;53.364;-1.488;2023-03-01T17:18:42;101677.81;;;15.71;44.03
29879;BME280;16752;53.364;-1.488;2023-03-01T17:21:11;101677.91;;;15.82;43.92
29879;BME280;16752;53.364;-1.488;2023-03-01T17:23:37;101667.91;;;15.06;45.81
29879;BME280;16752;53.364;-1.488;2023-03-01T17:26:03;101671.38;;;15.48;44.42
29879;BME280;16752;53.364;-1.488;2023-03-01T17:28:29;101672.09;;;15.50;44.44
29879;BME280;16752;53.364;-1.488;2023-03-01T17:30:59;101665.78;;;15.25;44.67
29879;BME280;16752;53.364;-1.488;2023-03-01T17:33:25;101662.03;;;15.15;44.60
29879;BME280;16752;53.364;-1.488;2023-03-01T17:35:50;101661.22;;;15.42;44.14
29879;BME280;16752;53.364;-1.488;2023-03-01T17:38:16;101664.50;;;15.45;44.15
29879;BME280;16752;53.364;-1.488;2023-03-01T17:40:42;101660.94;;;14.20;46.99
29879;BME280;16752;53.364;-1.488;2023-03-01T17:43:10;101664.97;;;15.38;44.11
29879;BME280;16752;53.364;-1.488;2023-03-01T17:45:36;101670.66;;;15.32;44.09
29879;BME280;16752;53.364;-1.488;2023-03-01T17:48:05;101668.88;;;15.32;44.10
29879;BME280;16752;53.364;-1.488;2023-03-01T17:50:33;101674.84;;;15.48;43.55
29879;BME280;16752;53.364;-1.488;2023-03-01T17:53:04;101681.88;;;15.35;43.68
29879;BME280;16752;53.364;-1.488;2023-03-01T17:55:34;101682.56;;;15.24;43.66
29879;BME280;16752;53.364;-1.488;2023-03-01T17:58:23;101683.53;;;15.09;44.34
29879;BME280;16752;53.364;-1.488;2023-03-01T18:01:19;101683.13;;;15.15;43.86
29879;BME280;16752;53.364;-1.488;2023-03-01T18:03:49;101689.25;;;15.16;43.79
29879;BME280;16752;53.364;-1.488;2023-03-01T18:06:23;101676.28;;;15.13;43.51
29879;BME280;16752;53.364;-1.488;2023-03-01T18:09:07;101691.47;;;14.95;43.61
29879;BME280;16752;53.364;-1.488;2023-03-01T18:11:42;101690.94;;;14.61;43.35
29879;BME280;16752;53.364;-1.488;2023-03-01T18:14:34;101678.88;;;14.43;44.75
29879;BME280;16752;53.364;-1.488;2023-03-01T18:17:00;101695.34;;;15.04;43.23
29879;BME280;16752;53.364;-1.488;2023-03-01T18:22:23;101691.66;;;15.06;43.00
29879;BME280;16752;53.364;-1.488;2023-03-01T18:24:51;101686.38;;;15.06;43.09
29879;BME280;16752;53.364;-1.488;2023-03-01T18:27:23;101687.13;;;15.08;43.00
29879;BME280;16752;53.364;-1.488;2023-03-01T18:29:48;101693.19;;;14.67;44.42
29879;BME280;16752;53.364;-1.488;2023-03-01T18:32:21;101683.78;;;14.78;44.11
29879;BME280;16752;53.364;-1.488;2023-03-01T18:34:47;101677.31;;;14.55;44.58
29879;BME280;16752;53.364;-1.488;2023-03-01T18:37:19;101692.41;;;15.08;43.32
29879;BME280;16752;53.364;-1.488;2023-03-01T18:39:49;101683.78;;;14.78;43.86
29879;BME280;16752;53.364;-1.488;2023-03-01T18:42:20;101678.78;;;14.87;43.78
29879;BME280;16752;53.364;-1.488;2023-03-01T18:44:46;101675.19;;;14.88;44.05
29879;BME280;16752;53.364;-1.488;2023-03-01T18:47:14;101682.84;;;14.64;44.86
29879;BME280;16752;53.364;-1.488;2023-03-01T18:49:40;101674.78;;;14.94;44.02
29879;BME280;16752;53.364;-1.488;2023-03-01T18:52:08;101678.84;;;15.00;44.19
29879;BME280;16752;53.364;-1.488;2023-03-01T18:54:34;101669.78;;;15.18;43.83
29879;BME280;16752;53.364;-1.488;2023-03-01T18:57:01;101676.16;;;15.28;43.95
29879;BME280;16752;53.364;-1.488;2023-03-01T18:59:26;101676.59;;;15.35;43.71
29879;BME280;16752;53.364;-1.488;2023-03-01T19:01:53;101673.09;;;15.35;43.79
29879;BME280;16752;53.364;-1.488;2023-03-01T19:04:18;101667.59;;;14.55;46.00
29879;BME280;16752;53.364;-1.488;2023-03-01T19:06:44;101673.69;;;14.84;45.90
29879;BME280;16752;53.364;-1.488;2023-03-01T19:09:09;101678.31;;;14.81;45.85
29879;BME280;16752;53.364;-1.488;2023-03-01T19:11:36;101675.22;;;14.60;46.21
29879;BME280;16752;53.364;-1.488;2023-03-01T19:14:05;101666.41;;;15.02;45.15
29879;BME280;16752;53.364;-1.488;2023-03-01T19:16:32;101680.00;;;14.82;45.75
29879;BME280;16752;53.364;-1.488;2023-03-01T19:19:01;101665.13;;;14.81;45.61
29879;BME280;16752;53.364;-1.488;2023-03-01T19:21:28;101662.59;;;13.92;47.80
29879;BME280;16752;53.364;-1.488;2023-03-01T19:24:07;101663.81;;;14.45;46.10
29879;BME280;16752;53.364;-1.488;2023-03-01T19:26:38;101668.03;;;14.90;45.22
29879;BME280;16752;53.364;-1.488;2023-03-01T19:29:09;101661.81;;;14.34;46.50
29879;BME280;16752;53.364;-1.488;2023-03-01T19:31:46;101657.03;;;14.70;45.43
29879;BME280;16752;53.364;-1.488;2023-03-01T19:34:17;101656.47;;;14.79;45.04
29879;BME280;16752;53.364;-1.488;2023-03-01T19:36:46;101647.50;;;14.38;46.21
29879;BME280;16752;53.364;-1.488;2023-03-01T19:39:15;101650.69;;;14.86;44.81
29879;BME280;16752;53.364;-1.488;2023-03-01T19:41:41;101656.66;;;14.47;45.85
29879;BME280;16752;53.364;-1.488;2023-03-01T19:44:09;101650.41;;;14.91;44.62
29879;BME280;16752;53.364;-1.488;2023-03-01T19:46:37;101652.88;;;14.80;44.58
29879;BME280;16752;53.364;-1.488;2023-03-01T19:49:13;101644.72;;;14.56;45.51
29879;BME280;16752;53.364;-1.488;2023-03-01T19:51:41;101649.59;;;14.76;45.08
29879;BME280;16752;53.364;-1.488;2023-03-01T19:54:15;101643.72;;;14.14;46.80
29879;BME280;16752;53.364;-1.488;2023-03-01T19:56:59;101643.56;;;14.60;45.81
29879;BME280;16752;53.364;-1.488;2023-03-01T20:02:26;101647.09;;;14.30;46.37
29879;BME280;16752;53.364;-1.488;2023-03-01T20:05:08;101645.88;;;14.22;46.38
29879;BME280;16752;53.364;-1.488;2023-03-01T20:07:33;101650.34;;;14.64;45.58
29879;BME280;16752;53.364;-1.488;2023-03-01T20:10:02;101662.50;;;14.66;45.93
29879;BME280;16752;53.364;-1.488;2023-03-01T20:12:30;101661.00;;;14.62;46.07
29879;BME280;16752;53.364;-1.488;2023-03-01T20:14:58;101660.44;;;14.57;46.45
29879;BME280;16752;53.364;-1.488;2023-03-01T20:17:37;101659.94;;;14.51;46.32
29879;BME280;16752;53.364;-1.488;2023-03-01T20:20:03;101666.66;;;13.98;47.05
29879;BME280;16752;53.364;-1.488;2023-03-01T20:22:28;101667.44;;;14.43;46.49
29879;BME280;16752;53.364;-1.488;2023-03-01T20:24:54;101662.25;;;14.27;46.78
29879;BME280;16752;53.364;-1.488;2023-03-01T20:27:20;101662.25;;;14.13;47.11
29879;BME280;16752;53.364;-1.488;2023-03-01T20:32:26;101646.44;;;14.27;46.56
29879;BME280;16752;53.364;-1.488;2023-03-01T20:34:54;101646.66;;;13.80;47.12
29879;BME280;16752;53.364;-1.488;2023-03-01T20:37:20;101655.09;;;13.70;46.75
29879;BME280;16752;53.364;-1.488;2023-03-01T20:39:46;101651.94;;;14.38;45.38
29879;BME280;16752;53.364;-1.488;2023-03-01T20:42:19;101645.81;;;13.79;47.13
29879;BME280;16752;53.364;-1.488;2023-03-01T20:44:48;101640.25;;;13.69;47.36
29879;BME280;16752;53.364;-1.488;2023-03-01T20:47:13;101645.91;;;14.50;45.23
29879;BME280;16752;53.364;-1.488;2023-03-01T20:49:44;101643.81;;;14.41;44.99
29879;BME280;16752;53.364;-1.488;2023-03-01T20:52:11;101646.34;;;14.14;46.06
29879;BME280;16752;53.364;-1.488;2023-03-01T20:54:36;101647.75;;;14.20;45.63
29879;BME280;16752;53.364;-1.488;2023-03-01T20:57:04;101635.16;;;14.11;45.91
29879;BME280;16752;53.364;-1.488;2023-03-01T20:59:35;101637.34;;;14.32;45.48
29879;BME280;16752;53.364;-1.488;2023-03-01T21:02:04;101639.88;;;14.48;45.06
29879;BME280;16752;53.364;-1.488;2023-03-01T21:04:37;101644.19;;;13.76;46.43
29879;BME280;16752;53.364;-1.488;2023-03-01T21:07:07;101641.19;;;14.41;44.79
29879;BME280;16752;53.364;-1.488;2023-03-01T21:09:33;101642.53;;;14.48;44.72
29879;BME280;16752;53.364;-1.488;2023-03-01T21:11:58;101639.88;;;14.48;44.43
29879;BME280;16752;53.364;-1.488;2023-03-01T21:14:23;101649.13;;;14.55;44.09
29879;BME280;16752;53.364;-1.488;2023-03-01T21:17:27;101642.31;;;14.23;44.17
29879;BME280;16752;53.364;-1.488;2023-03-01T21:19:52;101640.91;;;14.31;44.51
29879;BME280;16752;53.364;-1.488;2023-03-01T21:22:17;101641.03;;;14.58;43.80
29879;BME280;16752;53.364;-1.488;2023-03-01T21:24:43;101630.38;;;14.46;43.98
29879;BME280;16752;53.364;-1.488;2023-03-01T21:27:09;101649.38;;;14.22;45.03
29879;BME280;16752;53.364;-1.488;2023-03-01T21:29:39;101648.44;;;14.52;44.05
29879;BME280;16752;53.364;-1.488;2023-03-01T21:32:18;101644.91;;;13.94;45.20
29879;BME280;16752;53.364;-1.488;2023-03-01T21:34:54;101640.44;;;14.11;45.12
29879;BME280;16752;53.364;-1.488;2023-03-01T21:37:32;101645.69;;;14.25;44.85
29879;BME280;16752;53.364;-1.488;2023-03-01T21:40:07;101648.19;;;14.56;43.76
29879;BME280;16752;53.364;-1.488;2023-03-01T21:42:38;101650.44;;;14.48;43.67
29879;BME280;16752;53.364;-1.488;2023-03-01T21:45:25;101653.50;;;14.26;44.29
29879;BME280;16752;53.364;-1.488;2023-03-01T21:48:15;101645.56;;;14.56;43.23
29879;BME280;16752;53.364;-1.488;2023-03-01T21:54:18;101650.97;;;14.39;44.04
29879;BME280;16752;53.364;-1.488;2023-03-01T21:56:54;101651.72;;;14.41;43.70
29879;BME280;16752;53.364;-1.488;2023-03-01T23:19:09;101653.41;;;14.28;44.54
